Latest Coastal Weather Observations for Parndana

IDS60701

Issued at 12:01 pm CDT Sunday 26 March 2017 (issued every 10 minutes, with the page automatically refreshed every 10 minutes)

About coastal observations | Map of coastal stations | Coastal observations for SA | Marine services | Other Formats
Station Details ID: 022843 Name: PARNDANA CFS AWS Lat: -35.79 Lon: 137.25 Height: 165.0 m
Data from the previous 72 hours. | See also: Recent months at Parndana
Date/Time
CDT
Temp
°C
Wind Pressure Rain since
9am
mm
Weather Cloud Vis
km
Sea
Height
m
Swell
Dir  Spd
kts
Gust
kts
hPa Trend Height
m
Period
s
Dir
26/12:00pm 22.6 NE 5 7 - - 0.0 - - - - - - -
26/11:30am 21.2 NE 4 6 - - 0.0 - - - - - - -
26/11:00am 19.6 NNE 6 8 - - 0.0 - - - - - - -
26/10:30am 18.9 NE 4 6 - - 0.0 - - - - - - -
26/10:00am 18.1 ENE 5 6 - - 0.0 - - - - - - -
26/09:30am 17.8 NE 6 7 - - 0.0 - - - - - - -
26/09:00am 17.4 E 5 7 - - 0.0 - - - - - - -
26/08:30am 17.2 ESE 5 7 - - 0.0 - - - - - - -
26/08:00am 16.8 E 3 5 - - 0.0 - - - - - - -
26/07:30am 16.7 SE 5 7 - - 0.0 - - - - - - -
26/07:00am 16.0 SSE 5 6 - - 0.0 - - - - - - -
26/06:30am 16.3 SSE 5 7 - - 0.0 - - - - - - -
26/06:00am 16.5 ESE 3 4 - - 0.0 - - - - - - -
26/05:30am 16.5 E 5 7 - - 0.0 - - - - - - -
26/05:00am 16.5 E 5 7 - - 0.0 - - - - - - -
26/04:30am 16.5 E 7 9 - - 0.0 - - - - - - -
26/04:00am 16.4 E 4 6 - - 0.0 - - - - - - -
26/03:30am 16.4 ENE 4 5 - - 0.0 - - - - - - -
26/03:00am 16.5 ENE 3 5 - - 0.0 - - - - - - -
26/02:30am 16.5 ENE 5 6 - - 0.0 - - - - - - -
26/02:00am 16.5 E 3 5 - - 0.0 - - - - - - -
26/01:30am 16.6 E 3 3 - - 0.0 - - - - - - -
26/01:00am 16.8 E 4 5 - - 0.0 - - - - - - -
26/12:30am 16.9 E 6 8 - - 0.0 - - - - - - -
26/12:00am 17.0 E 4 6 - - 0.0 - - - - - - -
 
Date/Time
CDT
Temp
°C
Wind Pressure Rain since
9am
mm
Weather Cloud Vis
km
Sea
Height
m
Swell
Dir  Spd
kts
Gust
kts
hPa Trend Height
m
Period
s
Dir
25/11:30pm 17.0 E 5 7 - - 0.0 - - - - - - -
25/11:00pm 17.2 ESE 6 8 - - 0.0 - - - - - - -
25/10:30pm 17.4 ESE 6 7 - - 0.0 - - - - - - -
25/10:00pm 17.5 SE 6 9 - - 0.0 - - - - - - -
25/09:30pm 17.7 SE 6 7 - - 0.0 - - - - - - -
25/09:00pm 17.5 SSE 5 6 - - 0.0 - - - - - - -
25/08:30pm 17.4 SSE 6 8 - - 0.0 - - - - - - -
25/08:00pm 17.5 S 6 7 - - 0.0 - - - - - - -
25/07:30pm 18.0 SSE 7 8 - - 0.0 - - - - - - -
25/07:00pm 18.9 SSE 7 9 - - 0.0 - - - - - - -
25/06:30pm 19.4 SSE 7 9 - - 0.0 - - - - - - -
25/06:00pm 20.0 SSE 6 8 - - 0.0 - - - - - - -
25/05:30pm 20.2 SSE 7 9 - - 0.0 - - - - - - -
25/05:00pm 20.7 SSE 7 9 - - 0.0 - - - - - - -
25/04:30pm 21.4 S 7 8 - - 0.0 - - - - - - -
25/04:00pm 21.7 S 6 9 - - 0.0 - - - - - - -
25/03:30pm 22.6 S 6 9 - - 0.0 - - - - - - -
25/03:00pm 22.3 S 5 9 - - 0.0 - - - - - - -
25/02:30pm 22.2 SSE 7 10 - - 0.0 - - - - - - -
25/02:00pm 22.3 S 6 9 - - 0.0 - - - - - - -
25/01:30pm 22.5 SSE 4 9 - - 0.0 - - - - - - -
25/01:00pm 21.8 S 6 8 - - 0.0 - - - - - - -
25/12:30pm 20.9 S 6 9 - - 0.0 - - - - - - -
25/12:00pm 20.3 SSE 7 10 - - 0.0 - - - - - - -
25/11:30am 19.7 SSW 8 11 - - 0.0 - - - - - - -
25/11:00am 19.6 S 7 8 - - 0.0 - - - - - - -
25/10:30am 19.8 SSW 9 13 - - 0.0 - - - - - - -
25/10:00am 19.6 SSW 11 14 - - 0.0 - - - - - - -
25/09:30am 18.4 SSW 11 14 - - 0.0 - - - - - - -
25/09:00am 18.3 SSW 8 10 - - 0.2 - - - - - - -
25/08:30am 18.1 SSW 7 9 - - 0.2 - - - - - - -
25/08:00am 17.8 SW 7 9 - - 0.2 - - - - - - -
25/07:30am 17.6 SW 7 9 - - 0.2 - - - - - - -
25/07:00am 17.2 SW 7 9 - - 0.2 - - - - - - -
25/06:30am 16.8 SW 7 10 - - 0.2 - - - - - - -
25/06:00am 16.7 SSW 6 8 - - 0.2 - - - - - - -
25/05:30am 17.0 SSW 7 11 - - 0.2 - - - - - - -
25/05:00am 17.0 SSW 5 7 - - 0.2 - - - - - - -
25/04:30am 17.2 SSW 6 7 - - 0.2 - - - - - - -
25/04:00am 17.8 SSW 8 10 - - 0.2 - - - - - - -
25/03:30am 18.3 SW 6 8 - - 0.2 - - - - - - -
25/03:00am 18.6 SSW 4 6 - - 0.2 - - - - - - -
25/02:30am 19.3 WSW 3 3 - - 0.2 - - - - - - -
25/02:00am 19.4 CALM 0 0 - - 0.2 - - - - - - -
25/01:30am 19.9 SSW 3 3 - - 0.2 - - - - - - -
25/01:00am 20.2 WSW 3 4 - - 0.2 - - - - - - -
25/12:30am 20.6 SW 5 5 - - 0.2 - - - - - - -
25/12:00am 20.7 W 5 6 - - 0.2 - - - - - - -
 
Date/Time
CDT
Temp
°C
Wind Pressure Rain since
9am
mm
Weather Cloud Vis
km
Sea
Height
m
Swell
Dir  Spd
kts
Gust
kts
hPa Trend Height
m
Period
s
Dir
24/11:30pm 21.5 N 5 6 - - 0.2 - - - - - - -
24/11:00pm 20.6 N 4 5 - - 0.2 - - - - - - -
24/10:30pm 20.8 N 6 7 - - 0.2 - - - - - - -
24/10:00pm 20.6 N 4 5 - - 0.2 - - - - - - -
24/09:30pm 20.1 NNE 2 3 - - 0.2 - - - - - - -
24/09:00pm 20.3 ENE 4 5 - - 0.2 - - - - - - -
24/08:30pm 20.5 SSE 1 2 - - 0.2 - - - - - - -
24/08:00pm 20.8 SSE 4 5 - - 0.2 - - - - - - -
24/07:30pm 21.1 SSW 6 9 - - 0.2 - - - - - - -
24/07:00pm 21.6 S 9 12 - - 0.2 - - - - - - -
24/06:30pm 22.4 S 10 13 - - 0.2 - - - - - - -
24/06:00pm 23.6 S 8 10 - - 0.2 - - - - - - -
24/05:30pm 24.3 S 10 13 - - 0.2 - - - - - - -
24/05:00pm 26.3 S 12 16 - - 0.2 - - - - - - -
24/04:30pm 28.4 WSW 5 8 - - 0.2 - - - - - - -
24/04:00pm 28.4 W 5 9 - - 0.2 - - - - - - -
24/03:30pm 28.0 WNW 7 10 - - 0.2 - - - - - - -
24/03:00pm 28.1 NW 8 11 - - 0.2 - - - - - - -
24/02:30pm 29.4 NW 8 13 - - 0.2 - - - - - - -
24/02:00pm 29.9 NW 8 13 - - 0.2 - - - - - - -
24/01:30pm 28.5 NNW 8 11 - - 0.2 - - - - - - -
24/01:00pm 27.4 N 9 14 - - 0.2 - - - - - - -
24/12:30pm 26.9 NNE 10 14 - - 0.0 - - - - - - -
24/12:00pm 26.8 NNE 11 15 - - 0.0 - - - - - - -
24/11:30am 24.3 NNE 10 13 - - 0.0 - - - - - - -
24/11:00am 23.8 NNE 8 11 - - 0.0 - - - - - - -
24/10:30am 22.2 NNE 6 8 - - 0.0 - - - - - - -
24/10:00am 20.9 NNE 4 6 - - 0.0 - - - - - - -
24/09:30am 18.9 NE 4 6 - - 0.0 - - - - - - -
24/09:00am 17.2 NE 3 4 - - 0.2 - - - - - - -
24/08:30am 15.9 ENE 4 4 - - 0.2 - - - - - - -
24/08:00am 14.6 W 1 3 - - 0.2 - - - - - - -
24/07:30am 15.2 N 1 1 - - 0.2 - - - - - - -
24/07:00am 15.2 ENE 4 5 - - 0.2 - - - - - - -
24/06:30am 15.3 E 4 5 - - 0.2 - - - - - - -
24/06:00am 15.4 E 6 7 - - 0.2 - - - - - - -
24/05:30am 15.4 SE 3 5 - - 0.2 - - - - - - -
24/05:00am 15.5 ESE 4 5 - - 0.2 - - - - - - -
24/04:30am 15.9 E 6 7 - - 0.2 - - - - - - -
24/04:00am 16.1 E 6 8 - - 0.2 - - - - - - -
24/03:30am 15.4 ESE 4 6 - - 0.2 - - - - - - -
24/03:00am 16.0 E 5 6 - - 0.2 - - - - - - -
24/02:30am 15.7 ESE 5 7 - - 0.2 - - - - - - -
24/02:00am 15.7 ESE 5 7 - - 0.2 - - - - - - -
24/01:30am 15.4 ESE 7 8 - - 0.2 - - - - - - -
24/01:00am 15.6 SE 5 7 - - 0.2 - - - - - - -
24/12:30am 15.5 ESE 7 9 - - 0.2 - - - - - - -
24/12:00am 15.3 SSE 6 7 - - 0.2 - - - - - - -
 
Date/Time
CDT
Temp
°C
Wind Pressure Rain since
9am
mm
Weather Cloud Vis
km
Sea
Height
m
Swell
Dir  Spd
kts
Gust
kts
hPa Trend Height
m
Period
s
Dir
23/11:30pm 14.6 SSE 5 7 - - 0.2 - - - - - - -
23/11:00pm 15.4 S 4 5 - - 0.2 - - - - - - -
23/10:30pm 15.4 SSE 6 7 - - 0.2 - - - - - - -
23/10:00pm 15.4 SSE 6 8 - - 0.2 - - - - - - -
23/09:30pm 15.6 SSE 8 9 - - 0.2 - - - - - - -
23/09:00pm 16.0 SSE 8 9 - - 0.2 - - - - - - -
23/08:30pm 16.3 SE 8 9 - - 0.2 - - - - - - -
23/08:00pm 16.8 SE 10 12 - - 0.2 - - - - - - -
23/07:30pm 17.1 SE 9 12 - - 0.2 - - - - - - -
23/07:00pm 17.7 SE 10 14 - - 0.2 - - - - - - -
23/06:30pm 18.1 SE 10 13 - - 0.2 - - - - - - -
23/06:00pm 18.4 SE 12 15 - - 0.2 - - - - - - -
23/05:30pm 19.8 SE 13 16 - - 0.2 - - - - - - -
23/05:00pm 20.3 SSE 13 18 - - 0.2 - - - - - - -
23/04:30pm 21.5 SE 13 17 - - 0.2 - - - - - - -
23/04:00pm 21.5 SE 12 15 - - 0.2 - - - - - - -
23/03:30pm 22.1 SE 13 17 - - 0.2 - - - - - - -
23/03:00pm 22.0 SE 12 17 - - 0.2 - - - - - - -
23/02:30pm 21.5 SE 13 17 - - 0.2 - - - - - - -
23/02:00pm 21.6 SE 10 13 - - 0.2 - - - - - - -
23/01:30pm 20.9 SE 13 18 - - 0.0 - - - - - - -
23/01:00pm 20.9 ESE 13 18 - - 0.0 - - - - - - -
23/12:30pm 20.0 SE 12 15 - - 0.0 - - - - - - -

Other Formats:

Comma delimited format used in spreadsheet applications
http://www.bom.gov.au/fwo/IDS60701/IDS60701.94807.axf

JavaScript Object Notation format (JSON) in row-major order
http://www.bom.gov.au/fwo/IDS60701/IDS60701.94807.json